createdAt,value
2022-12-22T00:02:32.847Z,11.57
2022-12-22T00:07:58.960Z,13.27
2022-12-22T00:13:29.491Z,12.63
2022-12-22T00:18:55.325Z,13.77
2022-12-22T00:24:21.791Z,11.03
2022-12-22T00:29:58.859Z,10.10
2022-12-22T00:35:24.616Z,10.50
2022-12-22T00:40:50.997Z,10.07
2022-12-22T00:46:17.247Z,9.40
2022-12-22T00:51:43.459Z,10.60
2022-12-22T00:57:09.427Z,10.07
2022-12-22T01:02:35.310Z,9.60
2022-12-22T01:08:01.772Z,11.00
2022-12-22T01:13:32.726Z,9.70
2022-12-22T01:18:59.230Z,9.43
2022-12-22T01:24:32.664Z,9.03
2022-12-22T01:29:58.431Z,9.63
2022-12-22T01:35:24.465Z,10.37
2022-12-22T01:40:49.773Z,11.63
2022-12-22T01:46:15.441Z,11.80
2022-12-22T01:51:43.767Z,12.03
2022-12-22T01:57:09.291Z,11.93
2022-12-22T02:02:36.002Z,12.17
2022-12-22T02:08:22.948Z,12.97
2022-12-22T02:14:30.092Z,11.93
2022-12-22T02:20:20.229Z,13.00
2022-12-22T02:25:58.451Z,12.97
2022-12-22T02:36:57.252Z,12.78
2022-12-22T02:42:44.217Z,14.60
2022-12-22T02:48:16.781Z,8.65
2022-12-22T02:53:42.767Z,7.57
2022-12-22T02:59:08.504Z,7.77
2022-12-22T03:04:34.641Z,7.63
2022-12-22T03:10:01.093Z,7.10
2022-12-22T03:15:27.771Z,7.00
2022-12-22T03:20:53.426Z,6.13
2022-12-22T03:26:01.533Z,6.43
2022-12-22T03:31:09.925Z,5.67
2022-12-22T03:36:17.608Z,5.63
2022-12-22T03:41:43.054Z,5.93
2022-12-22T03:46:51.569Z,5.83
2022-12-22T03:51:59.523Z,5.93
2022-12-22T03:57:07.271Z,5.47
2022-12-22T04:02:15.191Z,5.83
2022-12-22T04:07:22.905Z,6.57
2022-12-22T04:12:48.714Z,6.87
2022-12-22T04:17:57.589Z,6.80
2022-12-22T04:23:05.449Z,7.00
2022-12-22T04:28:13.308Z,11.33
2022-12-22T04:33:20.942Z,5.97
2022-12-22T04:38:28.683Z,5.97
2022-12-22T04:43:36.277Z,6.73
2022-12-22T04:48:43.969Z,7.37
2022-12-22T04:53:51.498Z,7.77
2022-12-22T04:58:59.069Z,8.30
2022-12-22T05:04:07.089Z,7.37
2022-12-22T05:09:16.043Z,6.20
2022-12-22T05:14:24.253Z,5.93
2022-12-22T05:19:33.564Z,6.07
2022-12-22T05:24:41.208Z,7.47
2022-12-22T05:29:49.264Z,9.10
2022-12-22T05:34:58.047Z,7.50
2022-12-22T05:40:06.439Z,7.80
2022-12-22T05:45:18.636Z,11.60
2022-12-22T05:50:26.542Z,12.63
2022-12-22T05:55:36.136Z,11.60
2022-12-22T06:00:45.164Z,11.70
2022-12-22T06:05:53.876Z,10.67
2022-12-22T06:11:01.501Z,9.63
2022-12-22T06:16:10.415Z,9.60
2022-12-22T06:21:18.697Z,8.67
2022-12-22T06:26:26.371Z,9.67
2022-12-22T06:31:34.112Z,10.80
2022-12-22T06:36:41.974Z,10.17
2022-12-22T06:42:07.545Z,10.10
2022-12-22T06:47:15.563Z,11.97
2022-12-22T06:52:23.244Z,11.70
2022-12-22T06:57:31.365Z,11.10
2022-12-22T07:02:39.294Z,11.20
2022-12-22T07:07:50.000Z,12.87
2022-12-22T07:12:59.717Z,13.90
2022-12-22T07:18:07.905Z,13.17
2022-12-22T07:23:15.829Z,9.50
2022-12-22T07:28:23.505Z,11.20
2022-12-22T07:33:31.356Z,11.80
2022-12-22T07:38:41.111Z,10.60
2022-12-22T07:43:49.503Z,9.70
2022-12-22T07:49:15.651Z,11.03
2022-12-22T07:54:23.557Z,11.23
2022-12-22T07:59:32.322Z,10.67
2022-12-22T08:04:41.242Z,11.73
2022-12-22T08:09:49.047Z,12.13
2022-12-22T08:14:57.133Z,11.47
2022-12-22T08:20:05.940Z,12.63
2022-12-22T08:25:14.561Z,13.47
2022-12-22T08:30:22.220Z,11.57
2022-12-22T08:35:31.158Z,12.37
2022-12-22T08:40:39.252Z,15.43
2022-12-22T08:45:46.918Z,12.33
2022-12-22T08:50:56.074Z,13.37
2022-12-22T08:56:04.671Z,14.60
2022-12-22T09:01:20.606Z,13.17
2022-12-22T09:06:31.987Z,13.80
2022-12-22T09:11:38.053Z,15.10
2022-12-22T09:16:46.113Z,15.43
2022-12-22T09:21:53.904Z,14.07
2022-12-22T09:27:04.283Z,13.27
2022-12-22T09:32:11.996Z,14.90
2022-12-22T09:37:20.135Z,13.83
2022-12-22T09:42:29.254Z,14.57
2022-12-22T09:47:43.268Z,14.07
2022-12-22T09:53:00.134Z,12.37
2022-12-22T09:58:22.185Z,13.43
2022-12-22T10:03:45.029Z,13.67
2022-12-22T10:08:54.781Z,14.75
2022-12-22T10:14:03.641Z,12.40
2022-12-22T10:19:13.905Z,10.17
2022-12-22T10:24:32.633Z,10.27
2022-12-22T10:29:43.387Z,10.18
2022-12-22T10:35:04.426Z,11.33
2022-12-22T10:40:17.899Z,11.20
2022-12-22T10:45:28.133Z,11.60
2022-12-22T10:50:39.666Z,11.63
2022-12-22T10:55:49.119Z,11.30
2022-12-22T11:01:05.661Z,10.47
2022-12-22T11:06:14.113Z,13.40
2022-12-22T11:11:33.794Z,13.60
2022-12-22T11:17:07.193Z,11.53
2022-12-22T11:22:30.686Z,14.83
2022-12-22T11:27:52.590Z,13.57
2022-12-22T11:33:21.389Z,15.67
2022-12-22T11:38:49.371Z,17.37
2022-12-22T11:44:12.473Z,17.63
2022-12-22T11:49:33.362Z,16.83
2022-12-22T11:54:47.386Z,17.63
2022-12-22T12:00:07.620Z,16.07
2022-12-22T12:05:37.076Z,16.73
2022-12-22T12:10:48.561Z,13.17
2022-12-22T12:16:05.851Z,13.63
2022-12-22T12:26:52.043Z,11.83
2022-12-22T12:32:06.264Z,7.80
2022-12-22T12:37:20.242Z,8.40
2022-12-22T12:42:39.056Z,7.80
2022-12-22T12:47:46.724Z,9.00
2022-12-22T12:52:57.895Z,14.47
2022-12-22T12:58:06.340Z,13.33
2022-12-22T13:03:44.623Z,17.03
2022-12-22T13:08:30.946Z,15.13
2022-12-22T13:13:41.985Z,15.27
2022-12-22T13:18:51.263Z,15.80
2022-12-22T13:29:30.115Z,14.50
2022-12-22T13:35:20.181Z,12.82
2022-12-22T13:40:10.183Z,11.13
2022-12-22T13:50:47.639Z,11.87
2022-12-22T14:01:10.163Z,8.00
2022-12-22T14:06:27.242Z,7.30
2022-12-22T14:11:34.931Z,6.75
2022-12-22T14:16:46.708Z,9.50
2022-12-22T14:22:03.601Z,7.57
2022-12-22T14:27:18.050Z,7.30
2022-12-22T14:49:23.227Z,6.30
2022-12-22T15:05:26.726Z,6.43
2022-12-22T15:10:43.455Z,7.43
2022-12-22T15:21:15.845Z,8.63
2022-12-22T15:26:24.282Z,9.97
2022-12-22T15:31:32.467Z,8.07
2022-12-22T15:36:40.258Z,9.60
2022-12-22T15:41:48.092Z,17.83
2022-12-22T15:46:58.789Z,8.90
2022-12-22T15:52:08.256Z,9.73
2022-12-22T15:57:16.121Z,9.67
2022-12-22T16:02:24.071Z,8.27
2022-12-22T16:07:32.206Z,7.83
2022-12-22T16:12:40.392Z,8.37
2022-12-22T16:17:49.773Z,8.50
2022-12-22T16:22:58.841Z,7.77
2022-12-22T16:28:06.850Z,8.30
2022-12-22T16:33:14.785Z,6.93
2022-12-22T16:38:22.527Z,7.27
2022-12-22T16:43:50.231Z,7.73
2022-12-22T16:49:00.137Z,6.28
2022-12-22T16:54:08.202Z,5.70
2022-12-22T16:59:17.723Z,6.00
2022-12-22T17:04:31.926Z,6.70
2022-12-22T17:09:48.976Z,5.43
2022-12-22T17:14:57.311Z,5.47
2022-12-22T17:20:05.688Z,6.60
2022-12-22T17:25:21.374Z,6.93
2022-12-22T17:30:30.584Z,9.83
2022-12-22T17:35:41.041Z,12.97
2022-12-22T17:40:49.406Z,10.93
2022-12-22T17:45:57.112Z,11.30
2022-12-22T17:51:05.341Z,9.80
2022-12-22T17:56:23.544Z,9.20
2022-12-22T18:01:32.883Z,9.20
2022-12-22T18:06:41.214Z,9.70
2022-12-22T18:11:49.917Z,10.00
2022-12-22T18:16:57.805Z,11.57
2022-12-22T18:22:06.447Z,8.93
2022-12-22T18:27:15.952Z,9.10
2022-12-22T18:32:27.716Z,10.00
2022-12-22T18:37:33.291Z,8.50
2022-12-22T18:42:41.069Z,9.87
2022-12-22T18:47:52.521Z,8.83
2022-12-22T18:53:01.429Z,9.90
2022-12-22T18:58:10.843Z,8.27
2022-12-22T19:03:24.265Z,9.93
2022-12-22T19:08:32.039Z,12.37
2022-12-22T19:13:41.739Z,10.67
2022-12-22T19:18:49.615Z,10.70
2022-12-22T19:24:01.443Z,10.10
2022-12-22T19:29:12.266Z,9.27
2022-12-22T19:34:21.087Z,9.83
2022-12-22T19:39:30.419Z,14.30
2022-12-22T19:44:38.343Z,10.33
2022-12-22T19:49:47.635Z,10.37
2022-12-22T19:54:55.250Z,7.90
2022-12-22T20:00:02.953Z,8.90
2022-12-22T20:05:25.512Z,7.60
2022-12-22T20:10:34.400Z,8.50
2022-12-22T20:15:42.688Z,8.93
2022-12-22T20:20:57.490Z,8.30
2022-12-22T20:26:10.080Z,8.70
2022-12-22T20:31:20.434Z,6.43
2022-12-22T20:36:31.355Z,6.47
2022-12-22T20:41:43.479Z,5.87
2022-12-22T20:46:50.803Z,6.47
2022-12-22T20:51:58.729Z,6.27
2022-12-22T20:57:07.050Z,6.90
2022-12-22T21:02:24.912Z,6.43
2022-12-22T21:07:35.467Z,6.20
2022-12-22T21:12:45.881Z,6.90
2022-12-22T21:17:58.167Z,7.60
2022-12-22T21:23:03.692Z,7.77
2022-12-22T21:28:15.242Z,8.30
2022-12-22T21:33:24.340Z,7.80
2022-12-22T21:38:33.277Z,9.03
2022-12-22T21:43:41.330Z,9.40
2022-12-22T21:48:49.028Z,9.50
2022-12-22T21:54:03.149Z,8.17
2022-12-22T21:59:14.731Z,9.53
2022-12-22T22:04:22.444Z,8.37
2022-12-22T22:09:30.880Z,7.73
2022-12-22T22:14:39.692Z,9.53
2022-12-22T22:19:47.707Z,9.57
2022-12-22T22:24:55.470Z,10.60
2022-12-22T22:30:03.454Z,10.07
2022-12-22T22:35:14.365Z,10.57
2022-12-22T22:40:23.284Z,9.60
2022-12-22T22:45:31.479Z,9.57
2022-12-22T22:50:43.501Z,10.00
2022-12-22T22:55:51.485Z,9.33
2022-12-22T23:01:10.244Z,7.53
2022-12-22T23:06:17.985Z,9.00
2022-12-22T23:11:25.631Z,9.00
2022-12-22T23:16:38.129Z,8.47
2022-12-22T23:21:42.684Z,9.53
2022-12-22T23:26:50.406Z,8.33
2022-12-22T23:31:58.613Z,9.57
2022-12-22T23:37:12.141Z,7.67
2022-12-22T23:42:17.649Z,7.60
2022-12-22T23:47:25.304Z,7.50
2022-12-22T23:52:32.990Z,9.73
2022-12-22T23:57:40.634Z,8.83
